sensor_id;sensor_type;location;lat;lon;timestamp;P1;durP1;ratioP1;P2;durP2;ratioP2
25125;SDS011;13106;50.808;5.670;2022-12-07T00:01:45;33.83;;;19.25;;
25125;SDS011;13106;50.808;5.670;2022-12-07T00:04:13;30.10;;;18.10;;
25125;SDS011;13106;50.808;5.670;2022-12-07T00:06:40;25.23;;;18.13;;
25125;SDS011;13106;50.808;5.670;2022-12-07T00:09:08;31.98;;;19.52;;
25125;SDS011;13106;50.808;5.670;2022-12-07T00:11:35;30.73;;;19.42;;
25125;SDS011;13106;50.808;5.670;2022-12-07T00:14:02;32.08;;;18.92;;
25125;SDS011;13106;50.808;5.670;2022-12-07T00:16:29;29.52;;;19.73;;
25125;SDS011;13106;50.808;5.670;2022-12-07T00:18:55;29.52;;;18.90;;
25125;SDS011;13106;50.808;5.670;2022-12-07T00:21:23;24.17;;;16.10;;
25125;SDS011;13106;50.808;5.670;2022-12-07T00:23:50;26.15;;;17.42;;
25125;SDS011;13106;50.808;5.670;2022-12-07T00:26:17;29.25;;;18.27;;
25125;SDS011;13106;50.808;5.670;2022-12-07T00:28:54;29.20;;;19.45;;
25125;SDS011;13106;50.808;5.670;2022-12-07T00:31:22;31.27;;;19.90;;
25125;SDS011;13106;50.808;5.670;2022-12-07T00:33:48;34.83;;;21.35;;
25125;SDS011;13106;50.808;5.670;2022-12-07T00:36:19;31.63;;;20.33;;
25125;SDS011;13106;50.808;5.670;2022-12-07T00:38:45;26.67;;;18.05;;
25125;SDS011;13106;50.808;5.670;2022-12-07T00:41:13;34.38;;;22.17;;
25125;SDS011;13106;50.808;5.670;2022-12-07T00:43:40;27.13;;;18.35;;
25125;SDS011;13106;50.808;5.670;2022-12-07T00:46:06;35.97;;;20.77;;
25125;SDS011;13106;50.808;5.670;2022-12-07T00:48:32;27.77;;;18.48;;
25125;SDS011;13106;50.808;5.670;2022-12-07T00:50:58;28.33;;;17.75;;
25125;SDS011;13106;50.808;5.670;2022-12-07T00:53:25;38.20;;;24.40;;
25125;SDS011;13106;50.808;5.670;2022-12-07T00:55:51;37.17;;;21.65;;
25125;SDS011;13106;50.808;5.670;2022-12-07T00:58:21;34.92;;;22.52;;
25125;SDS011;13106;50.808;5.670;2022-12-07T01:00:47;31.75;;;19.38;;
25125;SDS011;13106;50.808;5.670;2022-12-07T01:03:14;36.53;;;21.35;;
25125;SDS011;13106;50.808;5.670;2022-12-07T01:05:40;34.55;;;23.20;;
25125;SDS011;13106;50.808;5.670;2022-12-07T01:08:14;39.08;;;23.85;;
25125;SDS011;13106;50.808;5.670;2022-12-07T01:10:40;38.90;;;25.05;;
25125;SDS011;13106;50.808;5.670;2022-12-07T01:13:06;36.00;;;23.67;;
25125;SDS011;13106;50.808;5.670;2022-12-07T01:15:32;33.75;;;22.63;;
25125;SDS011;13106;50.808;5.670;2022-12-07T01:17:58;35.58;;;22.17;;
25125;SDS011;13106;50.808;5.670;2022-12-07T01:20:24;38.33;;;25.52;;
25125;SDS011;13106;50.808;5.670;2022-12-07T01:22:50;32.03;;;21.30;;
25125;SDS011;13106;50.808;5.670;2022-12-07T01:25:16;34.40;;;23.73;;
25125;SDS011;13106;50.808;5.670;2022-12-07T01:27:42;36.08;;;23.27;;
25125;SDS011;13106;50.808;5.670;2022-12-07T01:30:09;39.85;;;25.40;;
25125;SDS011;13106;50.808;5.670;2022-12-07T01:32:35;38.28;;;24.35;;
25125;SDS011;13106;50.808;5.670;2022-12-07T01:35:01;37.40;;;27.15;;
25125;SDS011;13106;50.808;5.670;2022-12-07T01:37:28;31.88;;;23.25;;
25125;SDS011;13106;50.808;5.670;2022-12-07T01:39:54;38.15;;;24.17;;
25125;SDS011;13106;50.808;5.670;2022-12-07T01:42:20;38.38;;;24.10;;
25125;SDS011;13106;50.808;5.670;2022-12-07T01:47:30;40.22;;;26.25;;
25125;SDS011;13106;50.808;5.670;2022-12-07T01:49:56;34.97;;;25.80;;
25125;SDS011;13106;50.808;5.670;2022-12-07T01:52:24;36.70;;;24.75;;
25125;SDS011;13106;50.808;5.670;2022-12-07T01:54:51;38.03;;;26.75;;
25125;SDS011;13106;50.808;5.670;2022-12-07T01:57:19;41.80;;;25.30;;
25125;SDS011;13106;50.808;5.670;2022-12-07T01:59:45;42.97;;;27.15;;
25125;SDS011;13106;50.808;5.670;2022-12-07T02:02:29;41.13;;;25.73;;
25125;SDS011;13106;50.808;5.670;2022-12-07T02:04:57;37.53;;;25.50;;
25125;SDS011;13106;50.808;5.670;2022-12-07T02:07:24;45.65;;;26.40;;
25125;SDS011;13106;50.808;5.670;2022-12-07T02:09:50;35.03;;;24.55;;
25125;SDS011;13106;50.808;5.670;2022-12-07T02:12:16;38.33;;;25.02;;
25125;SDS011;13106;50.808;5.670;2022-12-07T02:14:43;33.67;;;22.65;;
25125;SDS011;13106;50.808;5.670;2022-12-07T02:17:25;32.10;;;23.63;;
25125;SDS011;13106;50.808;5.670;2022-12-07T02:22:36;35.50;;;23.85;;
25125;SDS011;13106;50.808;5.670;2022-12-07T02:25:22;36.45;;;25.13;;
25125;SDS011;13106;50.808;5.670;2022-12-07T02:28:05;34.17;;;24.02;;
25125;SDS011;13106;50.808;5.670;2022-12-07T02:30:33;35.50;;;24.40;;
25125;SDS011;13106;50.808;5.670;2022-12-07T02:33:03;45.35;;;26.92;;
25125;SDS011;13106;50.808;5.670;2022-12-07T02:40:43;33.85;;;23.02;;
25125;SDS011;13106;50.808;5.670;2022-12-07T02:43:28;41.00;;;27.45;;
25125;SDS011;13106;50.808;5.670;2022-12-07T02:45:58;31.92;;;24.88;;
25125;SDS011;13106;50.808;5.670;2022-12-07T02:48:27;34.45;;;23.40;;
25125;SDS011;13106;50.808;5.670;2022-12-07T02:50:54;39.78;;;24.95;;
25125;SDS011;13106;50.808;5.670;2022-12-07T02:55:55;35.60;;;25.13;;
25125;SDS011;13106;50.808;5.670;2022-12-07T03:00:52;31.98;;;21.30;;
25125;SDS011;13106;50.808;5.670;2022-12-07T03:03:20;34.90;;;23.73;;
25125;SDS011;13106;50.808;5.670;2022-12-07T03:10:59;42.40;;;28.08;;
25125;SDS011;13106;50.808;5.670;2022-12-07T03:18:27;42.55;;;25.92;;
25125;SDS011;13106;50.808;5.670;2022-12-07T03:20:55;39.85;;;26.65;;
25125;SDS011;13106;50.808;5.670;2022-12-07T03:23:22;39.42;;;26.77;;
25125;SDS011;13106;50.808;5.670;2022-12-07T03:25:49;39.35;;;26.33;;
25125;SDS011;13106;50.808;5.670;2022-12-07T03:28:19;43.70;;;27.52;;
25125;SDS011;13106;50.808;5.670;2022-12-07T03:30:55;48.90;;;28.00;;
25125;SDS011;13106;50.808;5.670;2022-12-07T03:33:24;38.28;;;25.88;;
25125;SDS011;13106;50.808;5.670;2022-12-07T03:35:52;39.25;;;26.30;;
25125;SDS011;13106;50.808;5.670;2022-12-07T03:38:20;42.13;;;27.20;;
25125;SDS011;13106;50.808;5.670;2022-12-07T03:40:49;38.22;;;27.05;;
25125;SDS011;13106;50.808;5.670;2022-12-07T03:43:16;39.58;;;26.20;;
25125;SDS011;13106;50.808;5.670;2022-12-07T03:45:44;43.42;;;29.17;;
25125;SDS011;13106;50.808;5.670;2022-12-07T03:48:24;42.53;;;29.02;;
25125;SDS011;13106;50.808;5.670;2022-12-07T03:53:36;52.75;;;33.83;;
25125;SDS011;13106;50.808;5.670;2022-12-07T03:56:04;50.28;;;31.02;;
25125;SDS011;13106;50.808;5.670;2022-12-07T03:58:31;65.28;;;32.90;;
25125;SDS011;13106;50.808;5.670;2022-12-07T04:00:58;59.75;;;34.97;;
25125;SDS011;13106;50.808;5.670;2022-12-07T04:03:24;51.38;;;31.02;;
25125;SDS011;13106;50.808;5.670;2022-12-07T04:05:50;58.55;;;33.05;;
25125;SDS011;13106;50.808;5.670;2022-12-07T04:08:16;47.13;;;30.08;;
25125;SDS011;13106;50.808;5.670;2022-12-07T04:10:42;50.58;;;31.80;;
25125;SDS011;13106;50.808;5.670;2022-12-07T04:13:08;53.50;;;32.95;;
25125;SDS011;13106;50.808;5.670;2022-12-07T04:15:34;53.78;;;33.30;;
25125;SDS011;13106;50.808;5.670;2022-12-07T04:18:00;58.28;;;33.75;;
25125;SDS011;13106;50.808;5.670;2022-12-07T04:20:26;58.50;;;34.85;;
25125;SDS011;13106;50.808;5.670;2022-12-07T04:22:52;58.22;;;34.22;;
25125;SDS011;13106;50.808;5.670;2022-12-07T04:25:18;52.20;;;33.72;;
25125;SDS011;13106;50.808;5.670;2022-12-07T04:27:44;55.90;;;33.85;;
25125;SDS011;13106;50.808;5.670;2022-12-07T04:30:10;52.60;;;32.78;;
25125;SDS011;13106;50.808;5.670;2022-12-07T04:32:36;54.40;;;33.58;;
25125;SDS011;13106;50.808;5.670;2022-12-07T04:35:02;52.42;;;33.88;;
25125;SDS011;13106;50.808;5.670;2022-12-07T04:37:29;53.47;;;34.67;;
25125;SDS011;13106;50.808;5.670;2022-12-07T04:39:55;51.42;;;32.40;;
25125;SDS011;13106;50.808;5.670;2022-12-07T04:42:21;52.75;;;33.08;;
25125;SDS011;13106;50.808;5.670;2022-12-07T04:44:47;58.67;;;35.95;;
25125;SDS011;13106;50.808;5.670;2022-12-07T04:47:13;52.22;;;33.90;;
25125;SDS011;13106;50.808;5.670;2022-12-07T04:49:39;39.13;;;27.25;;
25125;SDS011;13106;50.808;5.670;2022-12-07T04:52:05;40.28;;;28.95;;
25125;SDS011;13106;50.808;5.670;2022-12-07T04:54:31;45.13;;;29.35;;
25125;SDS011;13106;50.808;5.670;2022-12-07T04:56:57;45.20;;;30.90;;
25125;SDS011;13106;50.808;5.670;2022-12-07T04:59:23;45.20;;;30.92;;
25125;SDS011;13106;50.808;5.670;2022-12-07T05:01:49;50.53;;;32.28;;
25125;SDS011;13106;50.808;5.670;2022-12-07T05:04:15;47.40;;;31.73;;
25125;SDS011;13106;50.808;5.670;2022-12-07T05:06:42;40.95;;;27.80;;
25125;SDS011;13106;50.808;5.670;2022-12-07T05:09:09;40.03;;;27.95;;
25125;SDS011;13106;50.808;5.670;2022-12-07T05:11:35;40.17;;;27.73;;
25125;SDS011;13106;50.808;5.670;2022-12-07T05:14:11;51.35;;;30.50;;
25125;SDS011;13106;50.808;5.670;2022-12-07T05:16:37;45.17;;;30.17;;
25125;SDS011;13106;50.808;5.670;2022-12-07T05:19:04;48.22;;;32.13;;
25125;SDS011;13106;50.808;5.670;2022-12-07T05:21:30;39.88;;;25.92;;
25125;SDS011;13106;50.808;5.670;2022-12-07T05:23:56;54.05;;;33.08;;
25125;SDS011;13106;50.808;5.670;2022-12-07T05:26:22;42.70;;;29.58;;
25125;SDS011;13106;50.808;5.670;2022-12-07T05:28:55;48.20;;;30.25;;
25125;SDS011;13106;50.808;5.670;2022-12-07T05:31:21;50.65;;;30.98;;
25125;SDS011;13106;50.808;5.670;2022-12-07T05:33:48;43.80;;;27.55;;
25125;SDS011;13106;50.808;5.670;2022-12-07T05:36:14;43.63;;;28.75;;
25125;SDS011;13106;50.808;5.670;2022-12-07T05:38:40;36.80;;;25.83;;
25125;SDS011;13106;50.808;5.670;2022-12-07T05:41:07;42.63;;;27.42;;
25125;SDS011;13106;50.808;5.670;2022-12-07T05:43:53;42.90;;;26.90;;
25125;SDS011;13106;50.808;5.670;2022-12-07T05:46:19;41.90;;;26.10;;
25125;SDS011;13106;50.808;5.670;2022-12-07T05:48:45;39.83;;;27.48;;
25125;SDS011;13106;50.808;5.670;2022-12-07T05:51:11;48.88;;;30.27;;
25125;SDS011;13106;50.808;5.670;2022-12-07T05:53:37;47.75;;;30.08;;
25125;SDS011;13106;50.808;5.670;2022-12-07T05:56:03;41.58;;;25.70;;
25125;SDS011;13106;50.808;5.670;2022-12-07T05:58:30;50.42;;;30.88;;
25125;SDS011;13106;50.808;5.670;2022-12-07T06:01:14;43.92;;;29.42;;
25125;SDS011;13106;50.808;5.670;2022-12-07T06:03:40;48.05;;;29.45;;
25125;SDS011;13106;50.808;5.670;2022-12-07T06:06:06;46.13;;;29.13;;
25125;SDS011;13106;50.808;5.670;2022-12-07T06:08:32;49.40;;;31.35;;
25125;SDS011;13106;50.808;5.670;2022-12-07T06:10:58;54.28;;;32.22;;
25125;SDS011;13106;50.808;5.670;2022-12-07T06:13:43;49.88;;;30.30;;
25125;SDS011;13106;50.808;5.670;2022-12-07T06:16:09;54.05;;;30.67;;
25125;SDS011;13106;50.808;5.670;2022-12-07T06:18:35;48.03;;;30.30;;
25125;SDS011;13106;50.808;5.670;2022-12-07T06:21:01;44.15;;;28.05;;
25125;SDS011;13106;50.808;5.670;2022-12-07T06:23:27;45.50;;;29.33;;
25125;SDS011;13106;50.808;5.670;2022-12-07T06:25:53;46.20;;;30.25;;
25125;SDS011;13106;50.808;5.670;2022-12-07T06:28:19;65.60;;;41.38;;
25125;SDS011;13106;50.808;5.670;2022-12-07T06:30:45;49.08;;;32.15;;
25125;SDS011;13106;50.808;5.670;2022-12-07T06:33:11;53.58;;;34.50;;
25125;SDS011;13106;50.808;5.670;2022-12-07T06:35:37;52.67;;;33.40;;
25125;SDS011;13106;50.808;5.670;2022-12-07T06:38:03;65.32;;;40.60;;
25125;SDS011;13106;50.808;5.670;2022-12-07T06:40:29;71.78;;;42.67;;
25125;SDS011;13106;50.808;5.670;2022-12-07T06:42:55;50.05;;;31.55;;
25125;SDS011;13106;50.808;5.670;2022-12-07T06:45:21;54.75;;;33.22;;
25125;SDS011;13106;50.808;5.670;2022-12-07T06:47:47;45.83;;;29.88;;
25125;SDS011;13106;50.808;5.670;2022-12-07T06:50:14;57.33;;;33.38;;
25125;SDS011;13106;50.808;5.670;2022-12-07T06:52:40;60.80;;;35.17;;
25125;SDS011;13106;50.808;5.670;2022-12-07T06:55:06;54.58;;;33.53;;
25125;SDS011;13106;50.808;5.670;2022-12-07T06:57:32;56.58;;;33.35;;
25125;SDS011;13106;50.808;5.670;2022-12-07T06:59:58;68.88;;;38.40;;
25125;SDS011;13106;50.808;5.670;2022-12-07T07:02:24;58.70;;;36.55;;
25125;SDS011;13106;50.808;5.670;2022-12-07T07:04:50;67.80;;;39.40;;
25125;SDS011;13106;50.808;5.670;2022-12-07T07:07:16;49.78;;;32.80;;
25125;SDS011;13106;50.808;5.670;2022-12-07T07:09:42;64.32;;;36.15;;
25125;SDS011;13106;50.808;5.670;2022-12-07T07:12:08;54.65;;;33.90;;
25125;SDS011;13106;50.808;5.670;2022-12-07T07:14:34;60.25;;;34.25;;
25125;SDS011;13106;50.808;5.670;2022-12-07T07:17:01;62.60;;;36.20;;
25125;SDS011;13106;50.808;5.670;2022-12-07T07:19:27;62.70;;;39.85;;
25125;SDS011;13106;50.808;5.670;2022-12-07T07:21:53;56.00;;;36.88;;
25125;SDS011;13106;50.808;5.670;2022-12-07T07:24:19;62.60;;;38.30;;
25125;SDS011;13106;50.808;5.670;2022-12-07T07:26:45;57.03;;;34.33;;
25125;SDS011;13106;50.808;5.670;2022-12-07T07:29:11;56.33;;;35.03;;
25125;SDS011;13106;50.808;5.670;2022-12-07T07:31:37;46.25;;;30.23;;
25125;SDS011;13106;50.808;5.670;2022-12-07T07:34:03;58.53;;;34.78;;
25125;SDS011;13106;50.808;5.670;2022-12-07T07:36:29;52.40;;;31.88;;
25125;SDS011;13106;50.808;5.670;2022-12-07T07:38:55;60.38;;;32.65;;
25125;SDS011;13106;50.808;5.670;2022-12-07T07:41:21;54.70;;;32.53;;
25125;SDS011;13106;50.808;5.670;2022-12-07T07:43:47;52.83;;;31.60;;
25125;SDS011;13106;50.808;5.670;2022-12-07T07:46:13;43.40;;;28.15;;
25125;SDS011;13106;50.808;5.670;2022-12-07T07:48:39;56.90;;;34.72;;
25125;SDS011;13106;50.808;5.670;2022-12-07T07:51:06;52.42;;;30.95;;
25125;SDS011;13106;50.808;5.670;2022-12-07T07:53:32;61.10;;;35.55;;
25125;SDS011;13106;50.808;5.670;2022-12-07T07:55:58;60.88;;;34.90;;
25125;SDS011;13106;50.808;5.670;2022-12-07T07:58:24;59.67;;;33.88;;
25125;SDS011;13106;50.808;5.670;2022-12-07T08:00:50;57.33;;;32.63;;
25125;SDS011;13106;50.808;5.670;2022-12-07T08:03:16;48.78;;;30.58;;
25125;SDS011;13106;50.808;5.670;2022-12-07T08:05:42;51.80;;;32.20;;
25125;SDS011;13106;50.808;5.670;2022-12-07T08:08:08;53.45;;;32.60;;
25125;SDS011;13106;50.808;5.670;2022-12-07T08:10:34;58.22;;;32.70;;
25125;SDS011;13106;50.808;5.670;2022-12-07T08:13:01;51.33;;;30.98;;
25125;SDS011;13106;50.808;5.670;2022-12-07T08:15:38;47.85;;;30.83;;
25125;SDS011;13106;50.808;5.670;2022-12-07T08:18:04;43.72;;;28.80;;
25125;SDS011;13106;50.808;5.670;2022-12-07T08:20:31;51.72;;;29.90;;
25125;SDS011;13106;50.808;5.670;2022-12-07T08:22:57;48.35;;;29.02;;
25125;SDS011;13106;50.808;5.670;2022-12-07T08:25:23;46.45;;;27.20;;
25125;SDS011;13106;50.808;5.670;2022-12-07T08:27:50;51.83;;;29.05;;
25125;SDS011;13106;50.808;5.670;2022-12-07T08:30:16;44.03;;;27.25;;
25125;SDS011;13106;50.808;5.670;2022-12-07T08:32:43;44.80;;;27.98;;
25125;SDS011;13106;50.808;5.670;2022-12-07T08:35:09;47.22;;;28.02;;
25125;SDS011;13106;50.808;5.670;2022-12-07T08:37:36;51.60;;;28.40;;
25125;SDS011;13106;50.808;5.670;2022-12-07T08:40:02;45.00;;;26.85;;
25125;SDS011;13106;50.808;5.670;2022-12-07T08:42:29;41.03;;;25.08;;
25125;SDS011;13106;50.808;5.670;2022-12-07T08:45:02;48.70;;;28.10;;
25125;SDS011;13106;50.808;5.670;2022-12-07T08:47:28;42.15;;;26.05;;
25125;SDS011;13106;50.808;5.670;2022-12-07T08:49:56;44.70;;;26.35;;
25125;SDS011;13106;50.808;5.670;2022-12-07T08:52:28;42.75;;;26.85;;
25125;SDS011;13106;50.808;5.670;2022-12-07T08:54:54;35.25;;;22.92;;
25125;SDS011;13106;50.808;5.670;2022-12-07T08:57:21;36.33;;;23.73;;
25125;SDS011;13106;50.808;5.670;2022-12-07T08:59:47;38.53;;;24.95;;
25125;SDS011;13106;50.808;5.670;2022-12-07T09:02:13;42.03;;;23.92;;
25125;SDS011;13106;50.808;5.670;2022-12-07T09:04:39;37.65;;;23.80;;
25125;SDS011;13106;50.808;5.670;2022-12-07T09:07:05;32.53;;;21.55;;
25125;SDS011;13106;50.808;5.670;2022-12-07T09:09:31;38.63;;;22.15;;
25125;SDS011;13106;50.808;5.670;2022-12-07T09:11:57;33.95;;;21.90;;
25125;SDS011;13106;50.808;5.670;2022-12-07T09:14:23;27.83;;;19.25;;
25125;SDS011;13106;50.808;5.670;2022-12-07T09:16:49;36.33;;;21.17;;
25125;SDS011;13106;50.808;5.670;2022-12-07T09:19:16;32.72;;;21.33;;
25125;SDS011;13106;50.808;5.670;2022-12-07T09:21:42;32.95;;;22.30;;
25125;SDS011;13106;50.808;5.670;2022-12-07T09:24:08;33.45;;;19.95;;
25125;SDS011;13106;50.808;5.670;2022-12-07T09:26:34;28.70;;;19.48;;
25125;SDS011;13106;50.808;5.670;2022-12-07T09:29:01;32.13;;;20.85;;
25125;SDS011;13106;50.808;5.670;2022-12-07T09:31:28;33.60;;;20.67;;
25125;SDS011;13106;50.808;5.670;2022-12-07T09:33:57;29.98;;;20.77;;
25125;SDS011;13106;50.808;5.670;2022-12-07T09:36:24;28.10;;;18.60;;
25125;SDS011;13106;50.808;5.670;2022-12-07T09:38:50;34.45;;;20.65;;
25125;SDS011;13106;50.808;5.670;2022-12-07T09:41:16;30.52;;;21.35;;
25125;SDS011;13106;50.808;5.670;2022-12-07T09:43:42;29.85;;;20.40;;
25125;SDS011;13106;50.808;5.670;2022-12-07T09:46:13;26.33;;;17.60;;
25125;SDS011;13106;50.808;5.670;2022-12-07T09:48:40;29.50;;;17.90;;
25125;SDS011;13106;50.808;5.670;2022-12-07T09:51:17;27.02;;;16.48;;
25125;SDS011;13106;50.808;5.670;2022-12-07T09:53:44;25.95;;;18.33;;
25125;SDS011;13106;50.808;5.670;2022-12-07T09:56:11;26.90;;;17.55;;
25125;SDS011;13106;50.808;5.670;2022-12-07T09:58:39;23.58;;;17.27;;
25125;SDS011;13106;50.808;5.670;2022-12-07T10:03:37;24.27;;;18.25;;
25125;SDS011;13106;50.808;5.670;2022-12-07T10:06:04;28.20;;;25.40;;
25125;SDS011;13106;50.808;5.670;2022-12-07T10:08:30;24.65;;;16.85;;
25125;SDS011;13106;50.808;5.670;2022-12-07T10:10:57;22.13;;;19.80;;
25125;SDS011;13106;50.808;5.670;2022-12-07T10:13:36;23.85;;;16.80;;
25125;SDS011;13106;50.808;5.670;2022-12-07T10:16:03;20.77;;;14.85;;
25125;SDS011;13106;50.808;5.670;2022-12-07T10:18:36;20.85;;;14.73;;
25125;SDS011;13106;50.808;5.670;2022-12-07T10:28:52;22.00;;;14.13;;
25125;SDS011;13106;50.808;5.670;2022-12-07T10:31:19;19.23;;;12.75;;
25125;SDS011;13106;50.808;5.670;2022-12-07T10:33:51;22.48;;;13.25;;
25125;SDS011;13106;50.808;5.670;2022-12-07T10:38:44;21.65;;;14.43;;
25125;SDS011;13106;50.808;5.670;2022-12-07T10:41:10;23.02;;;14.70;;
25125;SDS011;13106;50.808;5.670;2022-12-07T10:43:37;20.25;;;13.85;;
25125;SDS011;13106;50.808;5.670;2022-12-07T10:51:47;17.42;;;11.60;;
25125;SDS011;13106;50.808;5.670;2022-12-07T10:54:25;20.92;;;11.85;;
25125;SDS011;13106;50.808;5.670;2022-12-07T11:02:24;19.48;;;12.80;;
25125;SDS011;13106;50.808;5.670;2022-12-07T11:07:28;28.80;;;13.52;;
25125;SDS011;13106;50.808;5.670;2022-12-07T11:10:13;16.80;;;11.18;;
25125;SDS011;13106;50.808;5.670;2022-12-07T11:20:23;22.25;;;18.25;;
25125;SDS011;13106;50.808;5.670;2022-12-07T11:28:02;23.90;;;14.68;;
25125;SDS011;13106;50.808;5.670;2022-12-07T11:35:40;19.90;;;13.70;;
25125;SDS011;13106;50.808;5.670;2022-12-07T11:38:10;16.67;;;9.90;;
25125;SDS011;13106;50.808;5.670;2022-12-07T11:40:37;17.80;;;12.15;;
25125;SDS011;13106;50.808;5.670;2022-12-07T11:45:42;18.00;;;15.43;;
25125;SDS011;13106;50.808;5.670;2022-12-07T11:48:17;19.38;;;10.98;;
25125;SDS011;13106;50.808;5.670;2022-12-07T11:50:47;15.98;;;9.45;;
25125;SDS011;13106;50.808;5.670;2022-12-07T11:53:15;14.80;;;9.35;;
25125;SDS011;13106;50.808;5.670;2022-12-07T11:55:53;17.00;;;8.15;;
25125;SDS011;13106;50.808;5.670;2022-12-07T12:00:47;18.13;;;8.95;;
25125;SDS011;13106;50.808;5.670;2022-12-07T12:03:20;13.23;;;8.43;;
25125;SDS011;13106;50.808;5.670;2022-12-07T12:05:49;15.57;;;8.05;;
25125;SDS011;13106;50.808;5.670;2022-12-07T12:08:24;13.73;;;8.23;;
25125;SDS011;13106;50.808;5.670;2022-12-07T12:13:44;17.17;;;8.45;;
25125;SDS011;13106;50.808;5.670;2022-12-07T12:16:21;15.77;;;7.80;;
25125;SDS011;13106;50.808;5.670;2022-12-07T12:18:52;13.43;;;8.70;;
25125;SDS011;13106;50.808;5.670;2022-12-07T12:21:22;13.85;;;8.93;;
25125;SDS011;13106;50.808;5.670;2022-12-07T12:24:09;13.38;;;8.25;;
25125;SDS011;13106;50.808;5.670;2022-12-07T12:26:36;17.10;;;9.43;;
25125;SDS011;13106;50.808;5.670;2022-12-07T12:29:06;15.23;;;8.10;;
25125;SDS011;13106;50.808;5.670;2022-12-07T12:34:02;19.17;;;9.63;;
25125;SDS011;13106;50.808;5.670;2022-12-07T12:46:58;14.57;;;9.93;;
25125;SDS011;13106;50.808;5.670;2022-12-07T13:01:47;15.90;;;8.68;;
25125;SDS011;13106;50.808;5.670;2022-12-07T13:04:18;16.02;;;9.20;;
25125;SDS011;13106;50.808;5.670;2022-12-07T13:06:47;17.80;;;9.00;;
25125;SDS011;13106;50.808;5.670;2022-12-07T13:09:20;16.25;;;9.30;;
25125;SDS011;13106;50.808;5.670;2022-12-07T13:11:47;16.10;;;9.00;;
25125;SDS011;13106;50.808;5.670;2022-12-07T13:16:59;11.20;;;8.48;;
25125;SDS011;13106;50.808;5.670;2022-12-07T13:24:55;11.32;;;7.32;;
25125;SDS011;13106;50.808;5.670;2022-12-07T13:27:21;18.08;;;6.50;;
25125;SDS011;13106;50.808;5.670;2022-12-07T13:29:48;14.60;;;6.60;;
25125;SDS011;13106;50.808;5.670;2022-12-07T13:32:22;9.35;;;5.57;;
25125;SDS011;13106;50.808;5.670;2022-12-07T13:34:49;9.90;;;6.05;;
25125;SDS011;13106;50.808;5.670;2022-12-07T13:39:51;10.02;;;5.90;;
25125;SDS011;13106;50.808;5.670;2022-12-07T13:42:30;9.35;;;5.82;;
25125;SDS011;13106;50.808;5.670;2022-12-07T13:44:57;11.82;;;5.43;;
25125;SDS011;13106;50.808;5.670;2022-12-07T13:50:01;12.32;;;5.72;;
25125;SDS011;13106;50.808;5.670;2022-12-07T13:52:29;16.02;;;10.13;;
25125;SDS011;13106;50.808;5.670;2022-12-07T13:57:31;26.63;;;13.90;;
25125;SDS011;13106;50.808;5.670;2022-12-07T14:00:03;83.07;;;48.35;;
25125;SDS011;13106;50.808;5.670;2022-12-07T14:02:30;36.67;;;18.98;;
25125;SDS011;13106;50.808;5.670;2022-12-07T14:05:09;37.28;;;22.42;;
25125;SDS011;13106;50.808;5.670;2022-12-07T14:07:47;33.70;;;15.30;;
25125;SDS011;13106;50.808;5.670;2022-12-07T14:10:53;35.47;;;15.70;;
25125;SDS011;13106;50.808;5.670;2022-12-07T14:15:51;19.95;;;10.40;;
25125;SDS011;13106;50.808;5.670;2022-12-07T14:18:24;52.47;;;26.10;;
25125;SDS011;13106;50.808;5.670;2022-12-07T14:20:52;25.38;;;11.88;;
25125;SDS011;13106;50.808;5.670;2022-12-07T14:23:27;13.75;;;6.75;;
25125;SDS011;13106;50.808;5.670;2022-12-07T14:25:53;17.02;;;8.32;;
25125;SDS011;13106;50.808;5.670;2022-12-07T14:30:52;22.52;;;12.68;;
25125;SDS011;13106;50.808;5.670;2022-12-07T14:33:18;18.38;;;10.18;;
25125;SDS011;13106;50.808;5.670;2022-12-07T14:35:44;22.88;;;11.77;;
25125;SDS011;13106;50.808;5.670;2022-12-07T14:38:10;43.20;;;23.25;;
25125;SDS011;13106;50.808;5.670;2022-12-07T14:40:36;42.25;;;23.20;;
25125;SDS011;13106;50.808;5.670;2022-12-07T14:43:13;22.58;;;12.85;;
25125;SDS011;13106;50.808;5.670;2022-12-07T14:45:40;23.60;;;12.15;;
25125;SDS011;13106;50.808;5.670;2022-12-07T14:48:07;21.30;;;13.60;;
25125;SDS011;13106;50.808;5.670;2022-12-07T14:50:37;31.70;;;18.75;;
25125;SDS011;13106;50.808;5.670;2022-12-07T14:53:07;22.98;;;11.57;;
25125;SDS011;13106;50.808;5.670;2022-12-07T14:55:35;18.00;;;11.15;;
25125;SDS011;13106;50.808;5.670;2022-12-07T14:58:02;15.15;;;8.30;;
25125;SDS011;13106;50.808;5.670;2022-12-07T15:00:28;12.40;;;6.70;;
25125;SDS011;13106;50.808;5.670;2022-12-07T15:02:54;10.95;;;4.15;;
25125;SDS011;13106;50.808;5.670;2022-12-07T15:05:21;10.30;;;4.75;;
25125;SDS011;13106;50.808;5.670;2022-12-07T15:07:47;4.57;;;2.95;;
25125;SDS011;13106;50.808;5.670;2022-12-07T15:10:18;6.80;;;3.47;;
25125;SDS011;13106;50.808;5.670;2022-12-07T15:15:10;7.65;;;3.38;;
25125;SDS011;13106;50.808;5.670;2022-12-07T15:17:36;7.88;;;3.22;;
25125;SDS011;13106;50.808;5.670;2022-12-07T15:20:02;8.13;;;3.40;;
25125;SDS011;13106;50.808;5.670;2022-12-07T15:22:29;5.60;;;3.22;;
25125;SDS011;13106;50.808;5.670;2022-12-07T15:24:56;6.50;;;3.72;;
25125;SDS011;13106;50.808;5.670;2022-12-07T15:27:22;16.33;;;9.98;;
25125;SDS011;13106;50.808;5.670;2022-12-07T15:29:48;16.73;;;8.90;;
25125;SDS011;13106;50.808;5.670;2022-12-07T15:32:14;12.98;;;7.18;;
25125;SDS011;13106;50.808;5.670;2022-12-07T15:34:40;18.50;;;9.18;;
25125;SDS011;13106;50.808;5.670;2022-12-07T15:37:06;10.40;;;6.30;;
25125;SDS011;13106;50.808;5.670;2022-12-07T15:39:33;12.52;;;5.88;;
25125;SDS011;13106;50.808;5.670;2022-12-07T15:41:59;13.75;;;6.35;;
25125;SDS011;13106;50.808;5.670;2022-12-07T15:44:25;12.50;;;5.80;;
25125;SDS011;13106;50.808;5.670;2022-12-07T15:47:10;14.70;;;8.50;;
25125;SDS011;13106;50.808;5.670;2022-12-07T15:49:36;10.18;;;8.27;;
25125;SDS011;13106;50.808;5.670;2022-12-07T15:52:02;13.95;;;10.77;;
25125;SDS011;13106;50.808;5.670;2022-12-07T15:54:28;13.93;;;7.85;;
25125;SDS011;13106;50.808;5.670;2022-12-07T15:56:55;11.32;;;8.73;;
25125;SDS011;13106;50.808;5.670;2022-12-07T15:59:21;10.48;;;6.15;;
25125;SDS011;13106;50.808;5.670;2022-12-07T16:01:47;11.98;;;9.32;;
25125;SDS011;13106;50.808;5.670;2022-12-07T16:04:13;16.80;;;15.05;;
25125;SDS011;13106;50.808;5.670;2022-12-07T16:06:39;10.73;;;7.28;;
25125;SDS011;13106;50.808;5.670;2022-12-07T16:09:06;13.93;;;10.77;;
25125;SDS011;13106;50.808;5.670;2022-12-07T16:11:32;12.65;;;8.80;;
25125;SDS011;13106;50.808;5.670;2022-12-07T16:13:58;12.43;;;9.18;;
25125;SDS011;13106;50.808;5.670;2022-12-07T16:16:24;11.07;;;7.10;;
25125;SDS011;13106;50.808;5.670;2022-12-07T16:18:51;16.15;;;14.50;;
25125;SDS011;13106;50.808;5.670;2022-12-07T16:21:17;10.85;;;6.82;;
25125;SDS011;13106;50.808;5.670;2022-12-07T16:23:43;11.63;;;8.48;;
25125;SDS011;13106;50.808;5.670;2022-12-07T16:26:16;10.98;;;8.30;;
25125;SDS011;13106;50.808;5.670;2022-12-07T16:28:43;17.30;;;8.57;;
25125;SDS011;13106;50.808;5.670;2022-12-07T16:31:10;16.83;;;11.20;;
25125;SDS011;13106;50.808;5.670;2022-12-07T16:33:37;18.50;;;8.52;;
25125;SDS011;13106;50.808;5.670;2022-12-07T16:36:04;16.23;;;8.88;;
25125;SDS011;13106;50.808;5.670;2022-12-07T16:38:31;16.50;;;9.50;;